createdAt,value
2018-01-25T06:25:57.715Z,96.00
2018-01-25T06:28:29.609Z,96.00
2018-01-25T06:31:02.258Z,96.20
2018-01-25T06:33:35.743Z,96.20
2018-01-25T06:36:07.614Z,96.20
2018-01-25T06:38:39.498Z,96.00
2018-01-25T06:41:12.141Z,96.20
2018-01-25T06:43:44.014Z,96.20
2018-01-25T06:46:15.894Z,96.10
2018-01-25T06:48:48.541Z,96.10
2018-01-25T06:51:20.661Z,96.00
2018-01-25T06:53:52.552Z,96.10
2018-01-25T06:56:24.677Z,96.00
2018-01-25T06:58:56.558Z,96.20
2018-01-25T07:01:28.430Z,96.50
2018-01-25T07:04:00.331Z,96.40
2018-01-25T07:06:32.203Z,96.30
2018-01-25T07:09:04.851Z,96.30
2018-01-25T07:11:36.715Z,96.30
2018-01-25T07:14:08.599Z,96.30
2018-01-25T07:16:41.241Z,96.20
2018-01-25T07:19:13.128Z,96.20
2018-01-25T07:21:45.002Z,96.40
2018-01-25T07:24:17.915Z,96.50
2018-01-25T07:26:49.906Z,96.50
2018-01-25T07:29:21.818Z,96.50
2018-01-25T07:31:54.732Z,96.70
2018-01-25T07:34:26.871Z,96.70
2018-01-25T07:36:58.741Z,96.70
2018-01-25T07:39:30.618Z,96.70
2018-01-25T07:42:02.479Z,96.80
2018-01-25T07:44:34.366Z,96.80
2018-01-25T07:47:06.228Z,96.80
2018-01-25T07:49:38.118Z,96.80
2018-01-25T07:52:10.751Z,96.80
2018-01-25T07:54:42.636Z,96.80
2018-01-25T07:57:14.510Z,96.70
2018-01-25T07:59:47.150Z,96.70
2018-01-25T08:02:19.036Z,96.70
2018-01-25T08:04:50.918Z,96.60
2018-01-25T08:07:23.550Z,96.70
2018-01-25T08:09:56.215Z,96.60
2018-01-25T08:12:28.084Z,96.60
2018-01-25T08:14:59.962Z,96.70
2018-01-25T08:17:31.842Z,96.70
2018-01-25T08:20:04.489Z,96.80
2018-01-25T08:22:36.786Z,96.80
2018-01-25T08:25:08.671Z,96.80
2018-01-25T08:27:40.543Z,96.70
2018-01-25T08:30:12.488Z,96.60
2018-01-25T08:32:45.119Z,96.70
2018-01-25T08:35:17.012Z,96.70
2018-01-25T08:37:49.659Z,96.60
2018-01-25T08:40:21.559Z,96.60
2018-01-25T08:42:54.200Z,96.80
2018-01-25T08:45:26.119Z,96.80
2018-01-25T08:47:57.982Z,96.70
2018-01-25T08:50:29.875Z,96.60
2018-01-25T08:53:02.817Z,96.60
2018-01-25T08:55:34.706Z,96.60
2018-01-25T08:58:06.580Z,96.60
2018-01-25T09:00:38.459Z,96.70
2018-01-25T09:03:10.326Z,96.70
2018-01-25T09:05:42.314Z,96.90
2018-01-25T09:08:14.947Z,96.80
2018-01-25T09:10:46.839Z,96.80
2018-01-25T09:13:19.479Z,96.80
2018-01-25T09:15:51.367Z,96.80
2018-01-25T09:18:23.235Z,96.80
2018-01-25T09:20:55.886Z,96.70
2018-01-25T09:23:27.762Z,96.70
2018-01-25T09:25:59.650Z,96.70
2018-01-25T09:28:31.522Z,96.60
2018-01-25T09:31:03.403Z,96.50
2018-01-25T09:33:35.275Z,96.50
2018-01-25T09:36:07.174Z,96.50
2018-01-25T09:38:39.047Z,96.50
2018-01-25T09:41:10.976Z,96.50
2018-01-25T09:43:42.852Z,96.50
2018-01-25T09:46:15.507Z,96.20
2018-01-25T09:48:47.529Z,96.20
2018-01-25T09:51:19.315Z,96.20
2018-01-25T09:53:51.180Z,96.00
2018-01-25T09:56:23.058Z,96.00
2018-01-25T09:58:54.923Z,95.70
2018-01-25T10:01:26.807Z,95.60
2018-01-25T10:03:58.682Z,95.50
2018-01-25T10:06:30.566Z,95.40
2018-01-25T10:09:02.438Z,95.20
2018-01-25T10:11:34.347Z,94.30
2018-01-25T10:14:06.978Z,93.80
2018-01-25T10:16:38.888Z,93.70
2018-01-25T10:19:10.758Z,93.30
2018-01-25T10:21:42.647Z,93.50
2018-01-25T10:24:14.524Z,93.50
2018-01-25T10:26:46.419Z,93.30
2018-01-25T10:29:19.069Z,93.30
2018-01-25T10:31:50.963Z,93.30
2018-01-25T10:34:23.610Z,93.20
2018-01-25T10:36:55.494Z,93.20
2018-01-25T10:39:28.170Z,92.70
2018-01-25T10:42:00.824Z,92.60
2018-01-25T10:44:32.702Z,92.50
2018-01-25T10:47:05.351Z,92.30
2018-01-25T10:49:37.239Z,92.30
2018-01-25T10:52:09.897Z,91.60
2018-01-25T10:54:42.003Z,91.50
2018-01-25T10:57:13.888Z,92.00
2018-01-25T10:59:45.763Z,91.60
2018-01-25T11:02:17.649Z,91.60
2018-01-25T11:04:49.537Z,91.20
2018-01-25T11:07:22.428Z,91.20
2018-01-25T11:09:54.299Z,91.50
2018-01-25T11:12:26.259Z,91.20
2018-01-25T11:14:58.175Z,91.40
2018-01-25T11:17:30.028Z,91.20
2018-01-25T11:20:01.902Z,91.30
2018-01-25T11:22:33.803Z,91.40
2018-01-25T11:25:05.678Z,91.20
2018-01-25T11:27:37.550Z,91.00
2018-01-25T11:30:09.429Z,91.10
2018-01-25T11:32:41.304Z,91.30
2018-01-25T11:35:13.955Z,91.10
2018-01-25T11:37:45.847Z,90.80
2018-01-25T11:40:18.478Z,91.00
2018-01-25T11:42:50.606Z,90.80
2018-01-25T11:45:22.494Z,90.20
2018-01-25T11:47:56.600Z,90.30
2018-01-25T11:50:28.479Z,90.50
2018-01-25T11:53:00.374Z,90.50
2018-01-25T11:55:32.242Z,90.40
2018-01-25T11:58:04.895Z,90.60
2018-01-25T12:00:36.771Z,90.60
2018-01-25T12:03:08.915Z,90.10
2018-01-25T12:05:41.560Z,90.00
2018-01-25T12:08:13.459Z,90.30
2018-01-25T12:10:46.127Z,90.00
2018-01-25T12:13:18.010Z,90.00
2018-01-25T12:15:50.659Z,90.20
2018-01-25T12:18:22.673Z,90.10
2018-01-25T12:20:55.567Z,90.50
2018-01-25T12:23:27.442Z,90.40
2018-01-25T12:25:59.318Z,90.80
2018-01-25T12:28:31.207Z,90.90
2018-01-25T12:31:03.070Z,91.20
2018-01-25T12:33:34.967Z,91.20
2018-01-25T12:36:06.928Z,91.90
2018-01-25T12:38:39.589Z,91.80
2018-01-25T12:41:12.218Z,92.20
2018-01-25T12:43:44.104Z,92.20
2018-01-25T12:46:16.210Z,92.50
2018-01-25T12:48:48.103Z,92.60
2018-01-25T12:51:20.155Z,92.60
2018-01-25T12:53:52.130Z,92.50
2018-01-25T12:56:23.994Z,92.80
2018-01-25T12:58:55.885Z,92.60
2018-01-25T13:01:27.758Z,92.40
2018-01-25T13:04:00.420Z,92.40
2018-01-25T13:06:32.291Z,92.40
2018-01-25T13:09:04.195Z,92.10
2018-01-25T13:11:36.067Z,92.10
2018-01-25T13:14:07.948Z,91.80
2018-01-25T13:16:40.578Z,92.00
2018-01-25T13:19:12.475Z,91.90
2018-01-25T13:21:44.350Z,91.90
2018-01-25T13:24:16.558Z,91.80
2018-01-25T13:26:48.435Z,91.70
2018-01-25T13:29:20.590Z,91.40
2018-01-25T13:31:52.462Z,91.20
2018-01-25T13:34:24.359Z,91.40
2018-01-25T13:36:56.226Z,91.50
2018-01-25T13:39:28.435Z,90.80
2018-01-25T13:42:00.298Z,90.90
2018-01-25T13:44:32.193Z,90.90
2018-01-25T13:47:04.055Z,90.70
2018-01-25T13:49:37.103Z,90.50
2018-01-25T13:52:08.995Z,90.40
2018-01-25T13:54:40.873Z,90.20
2018-01-25T13:57:12.748Z,90.10
2018-01-25T13:59:44.622Z,90.10
2018-01-25T14:02:17.273Z,90.20
2018-01-25T14:04:49.155Z,90.20
2018-01-25T14:07:21.799Z,91.00
2018-01-25T14:09:53.674Z,90.70
2018-01-25T14:12:25.550Z,90.50
2018-01-25T14:14:57.461Z,90.40
2018-01-25T14:17:29.327Z,90.30
2018-01-25T14:20:01.215Z,90.20
2018-01-25T14:22:33.090Z,90.60
2018-01-25T14:25:04.968Z,90.70
2018-01-25T14:27:37.610Z,90.30
2018-01-25T14:30:09.725Z,90.30
2018-01-25T14:32:41.596Z,90.60
2018-01-25T14:35:13.501Z,90.80
2018-01-25T14:37:45.370Z,90.70
2018-01-25T14:40:17.570Z,90.70
2018-01-25T14:42:49.455Z,90.60
2018-01-25T14:45:21.333Z,90.80
2018-01-25T14:47:53.201Z,90.80
2018-01-25T14:50:25.102Z,91.10
2018-01-25T14:52:56.979Z,91.40
2018-01-25T14:55:28.863Z,91.60
2018-01-25T14:58:00.730Z,91.80
2018-01-25T15:00:32.617Z,91.70
2018-01-25T15:03:04.484Z,92.20
2018-01-25T15:05:36.470Z,92.30
2018-01-25T15:08:09.099Z,93.50
2018-01-25T15:10:41.312Z,93.50
2018-01-25T15:13:13.193Z,93.40
2018-01-25T15:15:45.058Z,93.70
2018-01-25T15:18:16.923Z,93.50
2018-01-25T15:20:48.807Z,93.40
2018-01-25T15:23:20.662Z,93.60
2018-01-25T15:25:52.558Z,93.70
2018-01-25T15:28:25.194Z,93.90
2018-01-25T15:30:57.843Z,94.10
2018-01-25T15:33:29.755Z,94.10
2018-01-25T15:36:01.586Z,93.90
2018-01-25T15:38:33.451Z,94.20
2018-01-25T15:41:05.372Z,94.10
2018-01-25T15:43:37.535Z,94.00
2018-01-25T15:46:09.426Z,94.10
2018-01-25T15:48:41.299Z,94.00
2018-01-25T15:51:13.177Z,94.40
2018-01-25T15:53:45.047Z,94.40
2018-01-25T15:56:16.935Z,94.70
2018-01-25T15:58:48.811Z,94.70
2018-01-25T16:01:20.692Z,94.80
2018-01-25T16:03:52.556Z,94.70
2018-01-25T16:06:24.551Z,94.90
2018-01-25T16:08:56.415Z,95.40
2018-01-25T16:11:28.309Z,95.20
2018-01-25T16:14:00.179Z,95.20
2018-01-25T16:16:32.321Z,95.20
2018-01-25T16:19:04.519Z,95.50
2018-01-25T16:21:36.402Z,95.70
2018-01-25T16:24:08.315Z,95.80
2018-01-25T16:26:40.987Z,95.70
2018-01-25T16:29:13.926Z,95.70
2018-01-25T16:31:45.812Z,95.70
2018-01-25T16:34:17.670Z,95.80
2018-01-25T16:36:49.865Z,95.90
2018-01-25T16:39:21.731Z,96.10
2018-01-25T16:41:53.610Z,96.20
2018-01-25T16:44:25.491Z,96.10
2018-01-25T16:46:57.395Z,96.30
2018-01-25T16:49:30.023Z,96.30
2018-01-25T16:52:01.924Z,96.30
2018-01-25T16:54:34.565Z,96.60
2018-01-25T16:57:07.215Z,96.80
2018-01-25T16:59:39.108Z,96.80
2018-01-25T17:02:11.224Z,96.80
2018-01-25T17:04:43.103Z,96.90
2018-01-25T17:07:14.986Z,96.90
2018-01-25T17:09:46.882Z,97.00
2018-01-25T17:12:18.760Z,97.10
2018-01-25T17:14:51.753Z,97.10
2018-01-25T17:17:23.642Z,97.10
2018-01-25T17:19:55.506Z,97.20
2018-01-25T17:22:27.395Z,97.10
2018-01-25T17:24:59.267Z,97.30
2018-01-25T17:27:31.148Z,97.20
2018-01-25T17:30:03.316Z,97.30
2018-01-25T17:32:35.492Z,97.20
2018-01-25T17:35:07.354Z,97.20
2018-01-25T17:37:39.238Z,97.10
2018-01-25T17:40:11.110Z,97.30
2018-01-25T17:42:42.998Z,97.20
2018-01-25T17:45:14.890Z,97.20
2018-01-25T17:47:47.670Z,96.90
2018-01-25T17:50:19.621Z,97.10
2018-01-25T17:52:52.291Z,97.20
2018-01-25T17:55:24.156Z,97.20
2018-01-25T17:57:56.820Z,97.20
2018-01-25T18:00:28.687Z,97.20
2018-01-25T18:03:01.344Z,96.90
2018-01-25T18:05:39.027Z,96.90
2018-01-25T18:08:10.955Z,96.90
2018-01-25T18:10:43.570Z,97.00
2018-01-25T18:13:15.483Z,96.70
2018-01-25T18:15:47.384Z,96.70
2018-01-25T18:18:19.286Z,96.70
2018-01-25T18:20:51.963Z,96.60
2018-01-25T18:23:24.647Z,96.40
2018-01-25T18:25:57.308Z,96.50
2018-01-25T18:28:29.200Z,96.50
2018-01-25T18:31:01.362Z,96.50
2018-01-25T18:33:33.246Z,96.30
2018-01-25T18:36:05.117Z,96.30
2018-01-25T18:38:37.015Z,96.60
2018-01-25T18:41:08.890Z,96.60
2018-01-25T18:43:41.892Z,96.50
2018-01-25T18:46:14.546Z,96.50
2018-01-25T18:48:47.235Z,96.40
2018-01-25T18:51:19.870Z,96.70
2018-01-25T18:53:51.799Z,96.70
2018-01-25T18:56:23.664Z,96.70
2018-01-25T18:58:55.540Z,96.60
2018-01-25T19:01:27.670Z,96.50
2018-01-25T19:03:59.562Z,96.70
2018-01-25T19:06:31.424Z,96.60
2018-01-25T19:09:03.555Z,96.50
2018-01-25T19:11:35.422Z,96.60
2018-01-25T19:14:07.302Z,96.50
2018-01-25T19:16:39.167Z,96.50
2018-01-25T19:19:11.076Z,96.50
2018-01-25T19:21:42.954Z,96.60
2018-01-25T19:24:14.839Z,96.50
2018-01-25T19:26:46.728Z,96.50
2018-01-25T19:29:18.615Z,96.40
2018-01-25T19:31:51.254Z,96.40
2018-01-25T19:34:23.143Z,96.40
2018-01-25T19:36:55.014Z,96.40
2018-01-25T19:39:27.675Z,96.50
2018-01-25T19:41:59.569Z,96.40
2018-01-25T19:44:31.533Z,96.50
2018-01-25T19:47:04.180Z,96.60
2018-01-25T19:49:36.075Z,96.60
2018-01-25T19:52:07.942Z,96.60
2018-01-25T19:54:39.831Z,96.60
2018-01-25T19:57:11.704Z,96.60
2018-01-25T19:59:43.587Z,96.60
2018-01-25T20:02:15.454Z,96.60
2018-01-25T20:04:48.116Z,96.70
2018-01-25T20:07:20.016Z,96.60
2018-01-25T20:09:51.904Z,96.60
2018-01-25T20:12:23.782Z,96.70
2018-01-25T20:14:55.664Z,96.70
2018-01-25T20:17:27.530Z,96.80
